Time;durP1;ratioP1;P1;durP2;ratioP2;P2;SDS_P1;SDS_P2;PMS_P1;PMS_P2;Temp;Humidity;BMP_temperature;BMP_pressure;BME280_temperature;BME280_humidity;BME280_pressure;Samples;Min_cycle;Max_cycle;Signal;HPM_P1;HPM_P2
2021/11/14 00:00:39;;;;;;;114.57;39.42;;;;;;;;;;5012883;28;20595;-73
2021/11/14 00:03:05;;;;;;;118.18;39.08;;;;;;;;;;5022523;28;20222;-72
2021/11/14 00:05:31;;;;;;;114.18;36.88;;;;;;;;;;5015180;28;20278;-72
2021/11/14 00:07:57;;;;;;;122.00;36.87;;;;;;;;;;5014895;28;20206;-72
2021/11/14 00:10:22;;;;;;;106.20;36.95;;;;;;;;;;5016599;28;20198;-71
2021/11/14 00:12:48;;;;;;;103.35;36.60;;;;;;;;;;5021484;28;20277;-72
2021/11/14 00:15:14;;;;;;;123.80;38.63;;;;;;;;;;5018109;28;20550;-73
2021/11/14 00:17:39;;;;;;;121.83;38.77;;;;;;;;;;5013201;28;20190;-72
2021/11/14 00:20:07;;;;;;;115.87;38.70;;;;;;;;;;5024024;28;20543;-72
2021/11/14 00:22:33;;;;;;;111.75;37.42;;;;;;;;;;5019329;28;20229;-72
2021/11/14 00:25:00;;;;;;;110.50;37.72;;;;;;;;;;5016100;28;20465;-72
2021/11/14 00:27:27;;;;;;;124.90;38.60;;;;;;;;;;5010381;28;20504;-72
2021/11/14 00:29:52;;;;;;;123.80;38.42;;;;;;;;;;5022030;28;20175;-72
2021/11/14 00:32:17;;;;;;;126.35;38.85;;;;;;;;;;5010894;28;20532;-72
2021/11/14 00:34:43;;;;;;;121.22;38.75;;;;;;;;;;5027494;28;20486;-72
2021/11/14 00:37:08;;;;;;;109.80;37.47;;;;;;;;;;5014663;28;20273;-72
2021/11/14 00:39:33;;;;;;;110.97;37.42;;;;;;;;;;5014089;28;20472;-72
2021/11/14 00:41:59;;;;;;;117.03;38.85;;;;;;;;;;5015456;28;20178;-73
2021/11/14 00:44:24;;;;;;;121.10;38.63;;;;;;;;;;5025575;28;20257;-72
2021/11/14 00:46:50;;;;;;;123.45;37.67;;;;;;;;;;5022033;28;20186;-72
2021/11/14 00:49:16;;;;;;;117.68;38.50;;;;;;;;;;5017797;28;20182;-72
2021/11/14 00:51:41;;;;;;;116.15;38.95;;;;;;;;;;5018479;28;20198;-72
2021/11/14 00:54:08;;;;;;;101.00;36.75;;;;;;;;;;5019167;28;20205;-73
2021/11/14 00:56:34;;;;;;;113.97;36.90;;;;;;;;;;5020230;28;20240;-73
2021/11/14 00:58:59;;;;;;;106.07;38.53;;;;;;;;;;5007219;28;20328;-72
2021/11/14 01:01:25;;;;;;;120.10;38.50;;;;;;;;;;5016811;28;20208;-71
2021/11/14 01:03:51;;;;;;;108.85;37.78;;;;;;;;;;5004999;28;20226;-71
2021/11/14 01:06:16;;;;;;;105.93;37.17;;;;;;;;;;5021092;28;20229;-71
2021/11/14 01:08:42;;;;;;;103.30;36.65;;;;;;;;;;5009227;28;20210;-71
2021/11/14 01:11:09;;;;;;;98.50;36.33;;;;;;;;;;5019299;28;20191;-71
2021/11/14 01:13:37;;;;;;;111.30;39.10;;;;;;;;;;5012082;28;20190;-71
2021/11/14 01:16:05;;;;;;;108.78;37.78;;;;;;;;;;5020879;28;20559;-71
2021/11/14 01:18:32;;;;;;;117.13;39.22;;;;;;;;;;5014897;28;20187;-70
2021/11/14 01:21:01;;;;;;;121.05;40.60;;;;;;;;;;5007627;28;20218;-71
2021/11/14 01:23:27;;;;;;;115.13;39.88;;;;;;;;;;5022506;28;20201;-70
2021/11/14 01:25:53;;;;;;;111.45;39.22;;;;;;;;;;5017101;28;20198;-71
2021/11/14 01:28:19;;;;;;;118.43;39.22;;;;;;;;;;5018102;28;20213;-71
2021/11/14 01:30:47;;;;;;;108.45;40.28;;;;;;;;;;5011432;28;20198;-70
2021/11/14 01:33:14;;;;;;;125.65;40.50;;;;;;;;;;5022103;28;20178;-70
2021/11/14 01:35:40;;;;;;;106.20;39.20;;;;;;;;;;5018213;28;20188;-71
2021/11/14 01:38:07;;;;;;;109.00;39.15;;;;;;;;;;5019136;28;20190;-71
2021/11/14 01:40:41;;;;;;;117.80;39.97;;;;;;;;;;5010757;28;20701;-71
2021/11/14 01:43:08;;;;;;;122.75;39.25;;;;;;;;;;5027398;28;20182;-71
2021/11/14 01:45:35;;;;;;;128.02;40.05;;;;;;;;;;5010029;28;22230;-72
2021/11/14 01:48:00;;;;;;;107.50;39.95;;;;;;;;;;5019813;28;20226;-72
2021/11/14 01:50:26;;;;;;;119.93;39.63;;;;;;;;;;5014765;28;20312;-72
2021/11/14 01:52:52;;;;;;;127.72;38.92;;;;;;;;;;5016621;28;20654;-72
2021/11/14 01:55:23;;;;;;;115.43;37.97;;;;;;;;;;5017434;28;20187;-72
2021/11/14 01:57:49;;;;;;;110.90;38.92;;;;;;;;;;5012958;28;20257;-72
2021/11/14 02:00:19;;;;;;;115.45;39.45;;;;;;;;;;5018710;28;20198;-72
2021/11/14 02:02:45;;;;;;;114.03;39.50;;;;;;;;;;5017455;28;20562;-72
2021/11/14 02:05:10;;;;;;;120.85;39.58;;;;;;;;;;5021392;28;20364;-72
2021/11/14 02:07:37;;;;;;;120.57;39.72;;;;;;;;;;5018413;28;20206;-72
2021/11/14 02:10:05;;;;;;;124.32;40.30;;;;;;;;;;5030075;28;20271;-72
2021/11/14 02:12:31;;;;;;;115.57;38.58;;;;;;;;;;5016060;28;20182;-72
2021/11/14 02:14:57;;;;;;;104.75;36.88;;;;;;;;;;5029372;28;20193;-72
2021/11/14 02:17:22;;;;;;;112.32;40.50;;;;;;;;;;5019657;28;20178;-72
2021/11/14 02:19:50;;;;;;;113.28;38.88;;;;;;;;;;5026712;28;20190;-72
2021/11/14 02:22:17;;;;;;;110.40;38.00;;;;;;;;;;5014398;28;20193;-72
2021/11/14 02:24:43;;;;;;;100.97;36.75;;;;;;;;;;5021118;28;20198;-72
2021/11/14 02:27:08;;;;;;;97.55;36.42;;;;;;;;;;5013201;28;20665;-71
2021/11/14 02:29:34;;;;;;;113.03;38.72;;;;;;;;;;5017775;28;20193;-71
2021/11/14 02:31:59;;;;;;;111.70;38.83;;;;;;;;;;5021613;28;20576;-71
2021/11/14 02:34:25;;;;;;;101.35;37.45;;;;;;;;;;5018257;28;20186;-71
2021/11/14 02:36:50;;;;;;;111.78;39.22;;;;;;;;;;5021717;28;20178;-72
2021/11/14 02:39:16;;;;;;;117.22;38.08;;;;;;;;;;5012994;28;20228;-72
2021/11/14 02:41:41;;;;;;;114.57;38.83;;;;;;;;;;5020361;28;20182;-71
2021/11/14 02:44:06;;;;;;;127.47;40.88;;;;;;;;;;5013802;28;20205;-72
2021/11/14 02:46:32;;;;;;;107.72;38.38;;;;;;;;;;5029067;28;20186;-72
2021/11/14 02:48:57;;;;;;;119.80;38.88;;;;;;;;;;5020135;28;20209;-72
2021/11/14 02:51:28;;;;;;;109.78;40.20;;;;;;;;;;5026521;28;20190;-72
2021/11/14 02:53:54;;;;;;;115.75;39.65;;;;;;;;;;5015585;28;20175;-72
2021/11/14 02:56:20;;;;;;;120.75;39.25;;;;;;;;;;5027789;28;20263;-73
2021/11/14 02:58:46;;;;;;;114.33;39.60;;;;;;;;;;5017206;28;20183;-73
2021/11/14 03:01:18;;;;;;;120.32;38.65;;;;;;;;;;5019727;28;20532;-73
2021/11/14 03:03:45;;;;;;;111.70;39.17;;;;;;;;;;5023904;28;20255;-72
2021/11/14 03:06:11;;;;;;;122.32;40.33;;;;;;;;;;5017043;28;20588;-72
2021/11/14 03:08:37;;;;;;;118.83;38.20;;;;;;;;;;5023649;28;20884;-72
2021/11/14 03:11:04;;;;;;;130.73;39.70;;;;;;;;;;5012860;28;20195;-70
2021/11/14 03:13:30;;;;;;;112.67;38.57;;;;;;;;;;5023932;28;20183;-73
2021/11/14 03:16:03;;;;;;;137.98;42.40;;;;;;;;;;5017440;28;20520;-72
2021/11/14 03:18:28;;;;;;;134.77;39.10;;;;;;;;;;5019187;28;20175;-73
2021/11/14 03:20:56;;;;;;;156.15;43.67;;;;;;;;;;5010583;28;20182;-73
2021/11/14 03:23:24;;;;;;;153.10;42.88;;;;;;;;;;5026272;28;20189;-73
2021/11/14 03:25:50;;;;;;;164.27;44.03;;;;;;;;;;5021186;28;20648;-73
2021/11/14 03:28:16;;;;;;;158.23;44.17;;;;;;;;;;5025624;28;20326;-72
2021/11/14 03:30:42;;;;;;;168.52;45.00;;;;;;;;;;5011861;28;20206;-70
2021/11/14 03:33:12;;;;;;;170.65;44.15;;;;;;;;;;5016503;28;20285;-71
2021/11/14 03:35:41;;;;;;;161.38;41.03;;;;;;;;;;5013337;28;20355;-71
2021/11/14 03:38:09;;;;;;;149.90;41.33;;;;;;;;;;5026221;28;20178;-71
2021/11/14 03:40:35;;;;;;;135.80;41.45;;;;;;;;;;5022850;28;20202;-71
2021/11/14 03:43:00;;;;;;;133.10;40.83;;;;;;;;;;5020148;28;20182;-71
2021/11/14 03:45:26;;;;;;;124.75;39.03;;;;;;;;;;5024550;28;20198;-71
2021/11/14 03:47:51;;;;;;;121.28;39.75;;;;;;;;;;5017684;28;20203;-71
2021/11/14 03:50:17;;;;;;;116.43;39.33;;;;;;;;;;5020167;28;20200;-71
2021/11/14 03:52:45;;;;;;;119.50;39.25;;;;;;;;;;5014827;28;20194;-72
2021/11/14 03:55:13;;;;;;;113.53;38.35;;;;;;;;;;5026604;28;20645;-72
2021/11/14 03:57:42;;;;;;;116.43;39.90;;;;;;;;;;5020188;28;20204;-72
2021/11/14 04:00:30;;;;;;;109.73;37.87;;;;;;;;;;5021380;28;20521;-71
2021/11/14 04:02:57;;;;;;;121.57;37.55;;;;;;;;;;5013254;28;20210;-71
2021/11/14 04:05:25;;;;;;;125.15;38.85;;;;;;;;;;5024881;28;20264;-71
2021/11/14 04:07:51;;;;;;;134.60;39.50;;;;;;;;;;5016146;28;20305;-71
2021/11/14 04:10:16;;;;;;;133.27;39.97;;;;;;;;;;5025977;28;20269;-71
2021/11/14 04:12:42;;;;;;;116.70;37.38;;;;;;;;;;5017152;28;20331;-71
2021/11/14 04:15:11;;;;;;;114.35;36.45;;;;;;;;;;5025551;28;20174;-71
2021/11/14 04:17:37;;;;;;;107.43;35.15;;;;;;;;;;5024555;28;20714;-71
2021/11/14 04:20:04;;;;;;;108.53;36.15;;;;;;;;;;5009474;28;20187;-71
2021/11/14 04:22:30;;;;;;;116.88;35.38;;;;;;;;;;5019811;28;20616;-72
2021/11/14 04:24:55;;;;;;;110.88;35.97;;;;;;;;;;5015218;28;20281;-72
2021/11/14 04:27:20;;;;;;;115.15;34.33;;;;;;;;;;5020769;28;20207;-72
2021/11/14 04:29:46;;;;;;;112.72;34.28;;;;;;;;;;5019118;28;20606;-71
2021/11/14 04:32:11;;;;;;;110.78;33.97;;;;;;;;;;5022622;28;20210;-72
2021/11/14 04:34:37;;;;;;;109.63;34.78;;;;;;;;;;5019833;28;20190;-72
2021/11/14 04:37:02;;;;;;;116.03;34.92;;;;;;;;;;5020938;28;20191;-72
2021/11/14 04:39:28;;;;;;;106.28;33.80;;;;;;;;;;5008971;28;20363;-72
2021/11/14 04:41:53;;;;;;;102.57;33.13;;;;;;;;;;5022551;28;20182;-72
2021/11/14 04:44:18;;;;;;;106.07;35.40;;;;;;;;;;5010748;28;20198;-72
2021/11/14 04:46:44;;;;;;;99.85;33.35;;;;;;;;;;5022128;28;20185;-72
2021/11/14 04:49:09;;;;;;;102.05;34.55;;;;;;;;;;5014361;28;20744;-72
2021/11/14 04:51:35;;;;;;;101.70;33.75;;;;;;;;;;5015458;28;20251;-72
2021/11/14 04:54:00;;;;;;;115.35;36.03;;;;;;;;;;5015320;28;20280;-72
2021/11/14 04:56:25;;;;;;;106.85;33.92;;;;;;;;;;5015015;28;20301;-71
2021/11/14 04:58:51;;;;;;;109.50;33.30;;;;;;;;;;5015403;28;20299;-71
2021/11/14 05:01:16;;;;;;;93.57;32.65;;;;;;;;;;5011591;28;20506;-72
2021/11/14 05:03:42;;;;;;;86.82;30.70;;;;;;;;;;5015392;28;20273;-72
2021/11/14 05:06:09;;;;;;;90.43;30.30;;;;;;;;;;5011674;28;20684;-71
2021/11/14 05:08:35;;;;;;;81.47;29.40;;;;;;;;;;5017974;28;20210;-71
2021/11/14 05:11:01;;;;;;;82.70;29.60;;;;;;;;;;5016988;28;20672;-71
2021/11/14 05:13:26;;;;;;;76.03;29.30;;;;;;;;;;5023427;28;20193;-72
2021/11/14 05:15:51;;;;;;;87.57;29.97;;;;;;;;;;5008599;28;20198;-71
2021/11/14 05:18:17;;;;;;;85.53;30.08;;;;;;;;;;5020119;28;20184;-72
2021/11/14 05:20:43;;;;;;;85.47;30.40;;;;;;;;;;5020908;28;20286;-71
2021/11/14 05:23:13;;;;;;;87.72;31.23;;;;;;;;;;5011030;28;20178;-72
2021/11/14 05:25:39;;;;;;;91.10;30.52;;;;;;;;;;5022186;28;20579;-72
2021/11/14 05:28:04;;;;;;;88.43;30.90;;;;;;;;;;5012614;28;20296;-72
2021/11/14 05:30:30;;;;;;;89.72;29.45;;;;;;;;;;5015965;28;20194;-72
2021/11/14 05:32:55;;;;;;;88.40;30.65;;;;;;;;;;5017180;28;20265;-72
2021/11/14 05:35:20;;;;;;;98.45;31.00;;;;;;;;;;5017782;28;20223;-72
2021/11/14 05:37:46;;;;;;;94.78;31.00;;;;;;;;;;5008012;28;20175;-72
2021/11/14 05:40:11;;;;;;;105.07;30.33;;;;;;;;;;5016642;28;20183;-72
2021/11/14 05:42:37;;;;;;;87.35;29.00;;;;;;;;;;5014728;28;20186;-72
2021/11/14 05:45:03;;;;;;;95.78;29.92;;;;;;;;;;5026777;28;20260;-72
2021/11/14 05:47:29;;;;;;;100.30;31.33;;;;;;;;;;5012823;28;20206;-72
2021/11/14 05:49:54;;;;;;;97.80;30.10;;;;;;;;;;5018156;28;20672;-72
2021/11/14 05:52:19;;;;;;;107.20;32.33;;;;;;;;;;5021755;28;20240;-72
2021/11/14 05:54:45;;;;;;;99.32;30.48;;;;;;;;;;5012053;28;20214;-72
2021/11/14 05:57:11;;;;;;;96.82;28.55;;;;;;;;;;5016935;28;20209;-72
2021/11/14 06:02:19;;;;;;;90.70;28.13;;;;;;;;;;5018571;28;20685;-72
2021/11/14 06:07:14;;;;;;;80.63;26.63;;;;;;;;;;5018008;28;20190;-71
2021/11/14 06:09:39;;;;;;;92.03;28.23;;;;;;;;;;5015258;28;20553;-71
2021/11/14 06:12:05;;;;;;;86.68;27.25;;;;;;;;;;5020363;28;20547;-71
2021/11/14 06:14:31;;;;;;;84.10;26.63;;;;;;;;;;5004781;28;20194;-71
2021/11/14 06:16:56;;;;;;;91.93;27.07;;;;;;;;;;5017533;28;20187;-72
2021/11/14 06:19:21;;;;;;;82.37;26.70;;;;;;;;;;5009382;28;20618;-72
2021/11/14 06:21:47;;;;;;;73.10;24.77;;;;;;;;;;5017201;28;20187;-72
2021/11/14 06:24:12;;;;;;;75.45;25.45;;;;;;;;;;5022536;28;20194;-73
2021/11/14 06:26:37;;;;;;;70.75;24.65;;;;;;;;;;5012386;28;20206;-72
2021/11/14 06:29:03;;;;;;;70.68;25.42;;;;;;;;;;5025010;28;20214;-72
2021/11/14 06:31:29;;;;;;;59.53;22.50;;;;;;;;;;4321596;28;10000803;-71
2021/11/14 06:33:54;;;;;;;68.57;23.52;;;;;;;;;;5013710;28;20201;-71
2021/11/14 06:36:20;;;;;;;66.05;24.15;;;;;;;;;;5003549;28;20190;-72
2021/11/14 06:38:45;;;;;;;56.72;22.00;;;;;;;;;;5016805;28;20194;-71
2021/11/14 06:41:10;;;;;;;63.00;21.70;;;;;;;;;;5005414;28;20269;-73
2021/11/14 06:43:36;;;;;;;53.90;21.67;;;;;;;;;;5016380;28;20740;-72
2021/11/14 06:46:03;;;;;;;55.65;20.65;;;;;;;;;;5008614;28;20559;-72
2021/11/14 06:48:29;;;;;;;58.25;22.27;;;;;;;;;;5015950;28;20522;-72
2021/11/14 06:50:54;;;;;;;56.23;22.33;;;;;;;;;;5014191;28;20324;-72
2021/11/14 06:53:19;;;;;;;56.40;21.88;;;;;;;;;;5021809;28;20558;-71
2021/11/14 06:55:45;;;;;;;65.87;22.03;;;;;;;;;;5019188;28;20238;-72
2021/11/14 06:58:10;;;;;;;52.63;22.50;;;;;;;;;;5012043;28;20244;-72
2021/11/14 07:00:36;;;;;;;49.00;21.00;;;;;;;;;;5014380;28;20182;-72
2021/11/14 07:03:02;;;;;;;56.20;21.50;;;;;;;;;;5011611;28;20186;-72
2021/11/14 07:05:27;;;;;;;55.37;22.30;;;;;;;;;;5023914;28;20229;-72
2021/11/14 07:07:52;;;;;;;50.33;21.38;;;;;;;;;;5013698;28;20256;-72
2021/11/14 07:10:20;;;;;;;52.90;21.10;;;;;;;;;;5023046;28;20256;-72
2021/11/14 07:12:46;;;;;;;53.20;22.25;;;;;;;;;;5012367;28;20607;-72
2021/11/14 07:15:13;;;;;;;54.77;22.53;;;;;;;;;;5017529;28;20194;-72
2021/11/14 07:17:39;;;;;;;51.03;21.50;;;;;;;;;;5012049;28;20198;-72
2021/11/14 07:20:06;;;;;;;52.72;23.23;;;;;;;;;;5019473;28;20276;-72
2021/11/14 07:22:32;;;;;;;57.92;22.50;;;;;;;;;;5011628;28;20194;-72
2021/11/14 07:24:57;;;;;;;55.53;24.23;;;;;;;;;;5022967;28;20244;-72
2021/11/14 07:27:23;;;;;;;62.00;24.10;;;;;;;;;;5022142;28;20189;-72
2021/11/14 07:29:49;;;;;;;57.03;22.50;;;;;;;;;;5004072;28;23278;-72
2021/11/14 07:32:15;;;;;;;59.33;24.80;;;;;;;;;;5016352;28;20216;-72
2021/11/14 07:34:41;;;;;;;57.88;23.38;;;;;;;;;;5013244;28;20198;-72
2021/11/14 07:37:06;;;;;;;54.03;22.83;;;;;;;;;;5015649;28;20209;-72
2021/11/14 07:39:32;;;;;;;66.27;24.57;;;;;;;;;;5013421;28;20289;-73
2021/11/14 07:41:58;;;;;;;64.30;23.90;;;;;;;;;;5016047;28;20240;-72
2021/11/14 07:44:23;;;;;;;57.43;22.83;;;;;;;;;;5012524;28;20213;-72
2021/11/14 07:46:49;;;;;;;61.80;24.75;;;;;;;;;;5016616;28;20255;-72
2021/11/14 07:49:15;;;;;;;61.05;24.70;;;;;;;;;;5013973;28;20206;-72
2021/11/14 07:51:41;;;;;;;64.97;25.58;;;;;;;;;;5022395;28;20194;-72
2021/11/14 07:54:07;;;;;;;67.70;26.65;;;;;;;;;;5007245;28;20566;-71
2021/11/14 07:56:32;;;;;;;64.18;24.50;;;;;;;;;;5020495;28;20253;-72
2021/11/14 07:58:58;;;;;;;56.60;23.60;;;;;;;;;;5019537;28;20679;-72
2021/11/14 08:01:23;;;;;;;59.67;24.83;;;;;;;;;;5010348;28;20661;-73
2021/11/14 08:03:50;;;;;;;62.25;24.52;;;;;;;;;;5018340;28;20234;-72
2021/11/14 08:06:17;;;;;;;61.17;23.20;;;;;;;;;;5008357;28;20463;-72
2021/11/14 08:08:42;;;;;;;62.40;24.00;;;;;;;;;;5016524;28;20233;-72
2021/11/14 08:11:07;;;;;;;56.07;23.37;;;;;;;;;;5008467;28;20229;-72
2021/11/14 08:13:33;;;;;;;55.90;24.27;;;;;;;;;;5020182;28;20190;-72
2021/11/14 08:15:58;;;;;;;51.90;22.60;;;;;;;;;;5012278;28;20562;-72
2021/11/14 08:18:24;;;;;;;55.23;22.00;;;;;;;;;;5019659;28;20179;-72
2021/11/14 08:20:49;;;;;;;57.93;23.93;;;;;;;;;;5008708;28;20276;-72
2021/11/14 08:23:16;;;;;;;57.80;23.60;;;;;;;;;;5018732;28;20797;-73
2021/11/14 08:25:42;;;;;;;53.47;23.13;;;;;;;;;;5004651;28;20191;-72
2021/11/14 08:28:09;;;;;;;58.00;23.17;;;;;;;;;;5018227;28;20735;-73
2021/11/14 08:30:35;;;;;;;54.30;23.33;;;;;;;;;;5018428;28;20748;-72
2021/11/14 08:33:01;;;;;;;55.33;21.73;;;;;;;;;;5009560;28;20273;-73
2021/11/14 08:35:27;;;;;;;50.65;22.73;;;;;;;;;;5015980;28;21388;-72
2021/11/14 08:37:57;;;;;;;53.27;21.63;;;;;;;;;;4999431;28;20194;-72
2021/11/14 08:40:24;;;;;;;49.83;22.07;;;;;;;;;;5019852;28;20194;-72
2021/11/14 08:42:49;;;;;;;48.28;21.25;;;;;;;;;;5011696;28;20182;-73
2021/11/14 08:45:15;;;;;;;52.28;20.73;;;;;;;;;;5020810;28;20186;-73
2021/11/14 08:47:40;;;;;;;54.15;21.10;;;;;;;;;;5011013;28;20209;-73
2021/11/14 08:50:07;;;;;;;47.90;20.53;;;;;;;;;;5022227;28;20186;-73
2021/11/14 08:52:32;;;;;;;44.10;19.90;;;;;;;;;;5009844;28;20198;-73
2021/11/14 08:54:57;;;;;;;45.08;20.45;;;;;;;;;;5021689;28;20248;-73
2021/11/14 08:57:23;;;;;;;45.45;20.55;;;;;;;;;;5028858;28;20217;-73
2021/11/14 08:59:49;;;;;;;38.60;19.50;;;;;;;;;;5019818;28;20610;-73
2021/11/14 09:02:15;;;;;;;41.22;19.98;;;;;;;;;;5020157;28;20233;-73
2021/11/14 09:04:41;;;;;;;44.80;20.70;;;;;;;;;;5012887;28;20245;-73
2021/11/14 09:07:07;;;;;;;41.40;19.92;;;;;;;;;;5014277;28;20260;-72
2021/11/14 09:09:33;;;;;;;41.15;20.65;;;;;;;;;;5012921;28;20297;-72
2021/11/14 09:11:59;;;;;;;42.50;19.30;;;;;;;;;;5015061;28;20789;-72
2021/11/14 09:14:25;;;;;;;34.40;17.90;;;;;;;;;;5009650;28;20196;-71
2021/11/14 09:16:52;;;;;;;30.42;17.48;;;;;;;;;;5013327;28;20548;-72
2021/11/14 09:19:19;;;;;;;32.85;18.00;;;;;;;;;;5008381;28;20190;-71
2021/11/14 09:21:45;;;;;;;35.40;18.40;;;;;;;;;;5011917;28;20174;-72
2021/11/14 09:24:10;;;;;;;35.55;17.92;;;;;;;;;;5013034;28;20677;-72
2021/11/14 09:26:37;;;;;;;32.70;17.33;;;;;;;;;;5019877;28;20181;-72
2021/11/14 09:29:03;;;;;;;35.72;18.10;;;;;;;;;;5015199;28;20340;-72
2021/11/14 09:31:29;;;;;;;35.42;18.52;;;;;;;;;;5020563;28;20194;-72
2021/11/14 09:33:56;;;;;;;37.50;18.20;;;;;;;;;;5016720;28;20186;-72
2021/11/14 09:36:22;;;;;;;39.60;17.88;;;;;;;;;;5023114;28;20219;-72
2021/11/14 09:38:48;;;;;;;32.53;17.83;;;;;;;;;;5020925;28;20712;-72
2021/11/14 09:41:14;;;;;;;33.20;17.10;;;;;;;;;;5011030;28;20182;-72
2021/11/14 09:43:40;;;;;;;34.30;17.45;;;;;;;;;;5019695;28;20198;-72
2021/11/14 09:46:06;;;;;;;37.40;18.80;;;;;;;;;;5012312;28;20683;-72
2021/11/14 09:48:32;;;;;;;38.50;18.40;;;;;;;;;;5018731;28;20214;-72
2021/11/14 09:50:58;;;;;;;31.15;16.88;;;;;;;;;;5014657;28;20200;-72
2021/11/14 09:53:28;;;;;;;33.03;16.58;;;;;;;;;;5018414;28;20273;-71
2021/11/14 09:55:55;;;;;;;37.30;17.15;;;;;;;;;;5010094;28;20214;-71
2021/11/14 09:58:21;;;;;;;40.20;18.30;;;;;;;;;;5019576;28;20284;-72
2021/11/14 10:00:47;;;;;;;33.75;16.85;;;;;;;;;;5010401;28;20792;-72
2021/11/14 10:03:12;;;;;;;36.40;17.60;;;;;;;;;;5016463;28;20243;-72
2021/11/14 10:05:39;;;;;;;36.17;16.75;;;;;;;;;;5005328;28;20646;-72
2021/11/14 10:08:06;;;;;;;33.40;17.83;;;;;;;;;;5017428;28;20201;-72
2021/11/14 10:10:36;;;;;;;40.53;18.10;;;;;;;;;;5015826;28;20183;-72
2021/11/14 10:13:25;;;;;;;36.30;17.27;;;;;;;;;;5009019;28;20213;-72
2021/11/14 10:16:04;;;;;;;36.35;17.55;;;;;;;;;;5017500;28;20201;-72
2021/11/14 10:18:30;;;;;;;43.17;17.83;;;;;;;;;;5016126;28;20705;-72
2021/11/14 10:20:58;;;;;;;37.53;18.60;;;;;;;;;;5019727;28;20189;-72
2021/11/14 10:23:25;;;;;;;42.63;18.98;;;;;;;;;;5010964;28;20221;-72
2021/11/14 10:25:52;;;;;;;40.45;19.13;;;;;;;;;;5028687;28;20239;-72
2021/11/14 10:28:18;;;;;;;35.28;18.75;;;;;;;;;;5014331;28;20595;-72
2021/11/14 10:30:48;;;;;;;42.58;19.40;;;;;;;;;;5028160;28;20657;-72
2021/11/14 10:33:16;;;;;;;40.50;19.70;;;;;;;;;;5016335;28;20662;-73
2021/11/14 10:35:44;;;;;;;40.13;18.98;;;;;;;;;;5031488;28;20189;-72
2021/11/14 10:38:22;;;;;;;39.72;19.50;;;;;;;;;;5015637;28;20715;-72
2021/11/14 10:40:50;;;;;;;42.75;20.33;;;;;;;;;;5021706;28;20185;-72
2021/11/14 10:43:17;;;;;;;45.50;20.17;;;;;;;;;;5014556;28;20275;-72
2021/11/14 10:45:43;;;;;;;42.22;20.30;;;;;;;;;;5020164;28;20194;-72
2021/11/14 10:48:13;;;;;;;44.80;20.48;;;;;;;;;;5016205;28;20300;-72
2021/11/14 10:50:44;;;;;;;44.65;20.30;;;;;;;;;;5018452;28;20187;-72
2021/11/14 10:53:12;;;;;;;47.00;20.83;;;;;;;;;;5016630;28;20707;-72
2021/11/14 10:56:00;;;;;;;47.40;21.88;;;;;;;;;;5024478;28;20634;-72
2021/11/14 10:58:27;;;;;;;49.50;22.42;;;;;;;;;;5008788;28;23074;-72
2021/11/14 11:01:04;;;;;;;52.50;22.48;;;;;;;;;;5022039;28;20193;-72
2021/11/14 11:03:34;;;;;;;53.17;22.73;;;;;;;;;;5014615;28;20267;-72
2021/11/14 11:06:02;;;;;;;52.63;23.13;;;;;;;;;;5021307;28;20208;-71
2021/11/14 11:08:28;;;;;;;55.97;23.67;;;;;;;;;;5017990;28;20229;-71
2021/11/14 11:10:57;;;;;;;56.33;24.13;;;;;;;;;;5015688;28;20190;-72
2021/11/14 11:13:34;;;;;;;53.45;22.88;;;;;;;;;;5022094;28;20190;-73
2021/11/14 11:16:11;;;;;;;55.83;23.73;;;;;;;;;;5011214;28;20545;-72
2021/11/14 11:18:38;;;;;;;54.50;23.02;;;;;;;;;;5012662;28;20692;-72
2021/11/14 11:21:06;;;;;;;53.85;24.08;;;;;;;;;;5012019;28;20622;-72
2021/11/14 11:23:33;;;;;;;48.30;22.15;;;;;;;;;;5019806;28;20320;-72
2021/11/14 11:26:04;;;;;;;56.55;23.30;;;;;;;;;;5011350;28;20575;-72
2021/11/14 11:28:34;;;;;;;56.45;23.70;;;;;;;;;;5020723;28;20273;-72
2021/11/14 11:31:06;;;;;;;47.17;22.17;;;;;;;;;;5012025;28;20274;-72
2021/11/14 11:33:35;;;;;;;56.05;24.30;;;;;;;;;;5019907;28;20332;-72
2021/11/14 11:36:01;;;;;;;55.00;23.55;;;;;;;;;;5011780;28;20545;-72
2021/11/14 11:38:28;;;;;;;64.15;26.23;;;;;;;;;;5021529;28;20194;-72
2021/11/14 11:40:59;;;;;;;56.38;25.58;;;;;;;;;;5012521;28;20668;-72
2021/11/14 11:43:26;;;;;;;56.75;25.42;;;;;;;;;;5016470;28;20236;-73
2021/11/14 11:46:02;;;;;;;57.83;25.13;;;;;;;;;;5005146;28;20268;-72
2021/11/14 11:48:50;;;;;;;59.30;24.75;;;;;;;;;;5018220;28;20205;-73
2021/11/14 11:51:20;;;;;;;53.00;25.05;;;;;;;;;;5009003;28;20202;-72
2021/11/14 11:54:05;;;;;;;66.43;27.85;;;;;;;;;;5019560;28;20190;-72
2021/11/14 11:56:46;;;;;;;57.90;25.40;;;;;;;;;;5008395;28;21143;-73
2021/11/14 11:59:13;;;;;;;66.45;27.55;;;;;;;;;;5019641;28;20186;-73
2021/11/14 12:01:56;;;;;;;62.92;26.90;;;;;;;;;;5012271;28;20286;-74
2021/11/14 12:04:26;;;;;;;71.75;27.80;;;;;;;;;;5017762;28;20712;-74
2021/11/14 12:07:00;;;;;;;65.45;28.52;;;;;;;;;;5010217;28;20218;-74
2021/11/14 12:09:40;;;;;;;67.65;28.42;;;;;;;;;;5020660;28;20597;-73
2021/11/14 12:12:38;;;;;;;74.10;30.33;;;;;;;;;;5017642;28;20288;-73
2021/11/14 12:15:19;;;;;;;69.50;29.63;;;;;;;;;;5015364;28;20201;-73
2021/11/14 12:17:57;;;;;;;71.10;30.90;;;;;;;;;;5009864;28;20272;-73
2021/11/14 12:20:29;;;;;;;67.93;29.17;;;;;;;;;;5017594;28;20281;-72
2021/11/14 12:22:58;;;;;;;70.32;30.48;;;;;;;;;;5009247;28;20221;-73
2021/11/14 12:25:34;;;;;;;70.80;30.80;;;;;;;;;;5017289;28;20189;-73
2021/11/14 12:28:04;;;;;;;71.88;29.40;;;;;;;;;;5016694;28;20209;-73
2021/11/14 12:30:31;;;;;;;72.88;31.05;;;;;;;;;;5016609;28;20187;-73
2021/11/14 12:32:57;;;;;;;66.97;28.02;;;;;;;;;;5017917;28;20280;-73
2021/11/14 12:35:28;;;;;;;66.15;28.63;;;;;;;;;;5009144;28;20190;-73
2021/11/14 12:38:03;;;;;;;65.75;28.67;;;;;;;;;;5014217;28;20660;-73
2021/11/14 12:40:28;;;;;;;67.45;29.73;;;;;;;;;;4311701;28;10000738;-73
2021/11/14 12:43:06;;;;;;;63.45;28.38;;;;;;;;;;5014687;28;23898;-72
2021/11/14 12:45:31;;;;;;;63.70;26.63;;;;;;;;;;5000720;28;20191;-73
2021/11/14 12:47:57;;;;;;;61.40;27.58;;;;;;;;;;5015104;28;20203;-73
2021/11/14 12:50:29;;;;;;;53.53;24.02;;;;;;;;;;5002897;28;20186;-72
2021/11/14 12:53:12;;;;;;;58.55;25.45;;;;;;;;;;5017128;28;20728;-73
2021/11/14 12:55:40;;;;;;;52.78;25.50;;;;;;;;;;5008972;28;20245;-73
2021/11/14 12:58:09;;;;;;;49.35;23.38;;;;;;;;;;5012263;28;20178;-73
2021/11/14 13:00:36;;;;;;;53.13;24.00;;;;;;;;;;4999805;28;20692;-74
2021/11/14 13:03:04;;;;;;;50.92;22.75;;;;;;;;;;5013864;28;20508;-72
2021/11/14 13:05:41;;;;;;;46.58;23.23;;;;;;;;;;5007654;28;20237;-73
2021/11/14 13:08:08;;;;;;;51.65;22.95;;;;;;;;;;5016976;28;20611;-73
2021/11/14 13:10:45;;;;;;;44.95;22.55;;;;;;;;;;5003442;28;20243;-73
2021/11/14 13:13:15;;;;;;;48.80;23.58;;;;;;;;;;5016058;28;20189;-73
2021/11/14 13:15:41;;;;;;;47.17;21.20;;;;;;;;;;5006840;28;20596;-73
2021/11/14 13:18:06;;;;;;;41.30;20.10;;;;;;;;;;5017932;28;20691;-73
2021/11/14 13:20:32;;;;;;;46.58;21.40;;;;;;;;;;5016973;28;20277;-74
2021/11/14 13:22:58;;;;;;;45.15;20.13;;;;;;;;;;5009029;28;20513;-73
2021/11/14 13:25:28;;;;;;;45.63;19.85;;;;;;;;;;5014788;28;20554;-73
2021/11/14 13:27:54;;;;;;;43.38;18.67;;;;;;;;;;5008321;28;20700;-74
2021/11/14 13:30:22;;;;;;;44.60;18.88;;;;;;;;;;5017372;28;20236;-73
2021/11/14 13:32:48;;;;;;;41.80;19.42;;;;;;;;;;5006054;28;20197;-73
2021/11/14 13:35:14;;;;;;;47.83;20.00;;;;;;;;;;5018505;28;20235;-73
2021/11/14 13:37:40;;;;;;;44.00;18.45;;;;;;;;;;5010523;28;20206;-73
2021/11/14 13:40:10;;;;;;;45.60;18.65;;;;;;;;;;5018601;28;20186;-73
2021/11/14 13:42:35;;;;;;;40.63;19.08;;;;;;;;;;5006877;28;20203;-73
2021/11/14 13:45:05;;;;;;;41.15;18.77;;;;;;;;;;5015801;28;20194;-74
2021/11/14 13:47:34;;;;;;;41.22;19.88;;;;;;;;;;5006563;28;20201;-73
2021/11/14 13:50:02;;;;;;;46.97;19.65;;;;;;;;;;5015262;28;20201;-74
2021/11/14 13:52:28;;;;;;;42.80;20.30;;;;;;;;;;5023673;28;20202;-74
2021/11/14 13:54:59;;;;;;;48.40;21.65;;;;;;;;;;5017014;28;20622;-74
2021/11/14 13:57:29;;;;;;;49.13;22.23;;;;;;;;;;5014095;28;20194;-73
2021/11/14 13:59:57;;;;;;;58.58;24.73;;;;;;;;;;5010230;28;20194;-73
2021/11/14 14:02:24;;;;;;;58.60;24.65;;;;;;;;;;5014275;28;20278;-73
2021/11/14 14:04:55;;;;;;;49.80;23.60;;;;;;;;;;5011765;28;20241;-74
2021/11/14 14:07:21;;;;;;;56.08;24.05;;;;;;;;;;5023858;28;20202;-73
2021/11/14 14:09:59;;;;;;;57.08;24.20;;;;;;;;;;5011420;28;20201;-73
2021/11/14 14:12:28;;;;;;;59.10;24.67;;;;;;;;;;5018889;28;20192;-74
2021/11/14 14:14:56;;;;;;;54.28;23.73;;;;;;;;;;5029609;28;20205;-74
2021/11/14 14:17:27;;;;;;;55.33;25.17;;;;;;;;;;5020055;28;20319;-73